Saint Johns, Michigan
Current Conditions -  °F | °C
As of 10:53 PM on Tuesday 21 Oct 2014 (Local Time) from KLAN Reporting Station
Clear Clear  
Wind Chill: 36°   Ceiling: Unl
Heat Index: 39°   Visibility: 10mi
Dew Point: 33°   Wind: 5mph
Humidity: 79%   Direction: 30°NNE
Pressure: 30.26"   Gusts: NA
Location:  43°N, 84.56°W
Report Text: KLAN 220253Z 03004KT 10SM CLR 04/01 A3026 RMK AO2 SLP254 T00390006 53018
Loading
Personal Weather Stations






























Interactive Weather Map
Tropical Storm Tracking
New forecast layout! Learn more

10-Day Weather Forecast

Advertisements
Track Severe Weather on mobile